createdAt,value
2022-08-11T00:04:39.359Z,98.10
2022-08-11T00:09:41.734Z,97.90
2022-08-11T00:14:44.521Z,97.50
2022-08-11T00:20:14.883Z,97.90
2022-08-11T00:25:18.003Z,97.80
2022-08-11T00:30:19.901Z,97.50
2022-08-11T00:35:52.446Z,97.50
2022-08-11T00:40:59.467Z,97.10
2022-08-11T00:46:40.304Z,96.10
2022-08-11T00:52:09.480Z,96.50
2022-08-11T00:57:37.354Z,95.90
2022-08-11T01:02:54.628Z,96.70
2022-08-11T01:08:32.219Z,97.30
2022-08-11T01:13:53.483Z,97.20
2022-08-11T01:18:55.328Z,97.00
2022-08-11T01:24:00.015Z,97.30
2022-08-11T01:29:19.122Z,97.70
2022-08-11T01:34:27.002Z,98.30
2022-08-11T01:39:46.938Z,98.50
2022-08-11T01:45:24.187Z,98.20
2022-08-11T01:50:48.060Z,98.70
2022-08-11T01:56:00.803Z,98.70
2022-08-11T02:01:24.606Z,98.70
2022-08-11T02:06:56.584Z,98.90
2022-08-11T02:12:24.099Z,99.40
2022-08-11T02:17:39.206Z,99.90
2022-08-11T02:23:08.842Z,99.90
2022-08-11T02:28:16.700Z,99.90
2022-08-11T02:33:30.396Z,99.90
2022-08-11T02:38:47.655Z,99.90
2022-08-11T02:44:07.706Z,99.90
2022-08-11T02:49:45.144Z,99.90
2022-08-11T02:55:06.826Z,99.90
2022-08-11T03:00:16.172Z,99.90
2022-08-11T03:05:41.652Z,99.90
2022-08-11T03:11:13.998Z,99.90
2022-08-11T03:16:47.132Z,99.90
2022-08-11T03:22:06.529Z,99.90
2022-08-11T03:27:36.742Z,99.90
2022-08-11T03:33:41.642Z,99.90
2022-08-11T03:39:03.659Z,99.90
2022-08-11T03:44:44.215Z,99.90
2022-08-11T03:49:49.089Z,99.90
2022-08-11T03:55:34.029Z,99.90
2022-08-11T04:01:08.220Z,99.90
2022-08-11T04:06:39.955Z,99.90
2022-08-11T04:12:35.498Z,99.90
2022-08-11T04:17:46.525Z,99.90
2022-08-11T04:22:55.061Z,99.90
2022-08-11T04:28:07.539Z,99.90
2022-08-11T04:33:43.410Z,99.90
2022-08-11T04:39:14.562Z,99.90
2022-08-11T04:45:04.523Z,99.90
2022-08-11T04:51:16.562Z,99.90
2022-08-11T04:56:41.259Z,99.90
2022-08-11T05:02:16.973Z,99.90
2022-08-11T05:07:55.232Z,99.90
2022-08-11T05:13:21.767Z,99.90
2022-08-11T05:18:44.418Z,99.90
2022-08-11T05:24:16.159Z,99.90
2022-08-11T05:29:57.666Z,99.90
2022-08-11T05:35:04.921Z,99.90
2022-08-11T05:40:31.605Z,99.90
2022-08-11T05:46:04.760Z,99.90
2022-08-11T05:51:30.171Z,99.90
2022-08-11T05:56:34.335Z,99.90
2022-08-11T06:01:36.598Z,99.90
2022-08-11T06:06:45.171Z,99.90
2022-08-11T06:11:47.940Z,99.90
2022-08-11T06:16:52.196Z,99.90
2022-08-11T06:21:54.605Z,99.90
2022-08-11T06:27:13.702Z,99.90
2022-08-11T06:32:16.810Z,99.90
2022-08-11T06:37:21.574Z,99.90
2022-08-11T06:42:32.755Z,99.90
2022-08-11T06:47:35.916Z,99.90
2022-08-11T06:52:43.119Z,99.90
2022-08-11T06:58:06.272Z,99.90
2022-08-11T07:03:12.124Z,99.90
2022-08-11T07:08:56.981Z,99.90
2022-08-11T07:14:21.788Z,99.90
2022-08-11T07:19:48.575Z,98.00
2022-08-11T07:25:34.812Z,95.90
2022-08-11T07:30:40.647Z,96.30
2022-08-11T07:35:51.902Z,96.20
2022-08-11T07:40:53.792Z,95.70
2022-08-11T07:46:14.628Z,93.40
2022-08-11T07:51:41.280Z,94.30
2022-08-11T07:57:07.233Z,93.10
2022-08-11T08:02:24.367Z,92.70
2022-08-11T08:07:50.267Z,91.50
2022-08-11T08:13:12.627Z,90.50
2022-08-11T08:18:25.595Z,90.90
2022-08-11T08:23:34.777Z,91.10
2022-08-11T08:28:36.897Z,90.20
2022-08-11T08:33:44.248Z,85.90
2022-08-11T08:38:56.895Z,87.50
2022-08-11T08:44:27.803Z,84.20
2022-08-11T08:49:35.320Z,85.60
2022-08-11T08:54:44.604Z,85.60
2022-08-11T08:59:51.421Z,82.40
2022-08-11T09:04:53.928Z,84.90
2022-08-11T09:09:58.673Z,82.30
2022-08-11T09:15:05.453Z,80.50
2022-08-11T09:20:21.830Z,80.80
2022-08-11T09:25:47.435Z,82.70
2022-08-11T09:30:55.108Z,78.80
2022-08-11T09:35:57.189Z,77.10
2022-08-11T09:41:00.357Z,78.60
2022-08-11T09:46:06.864Z,77.20
2022-08-11T09:51:10.320Z,77.90
2022-08-11T09:56:39.152Z,76.10
2022-08-11T10:01:47.373Z,74.90
2022-08-11T10:07:05.426Z,74.80
2022-08-11T10:12:12.047Z,74.10
2022-08-11T10:17:16.013Z,72.50
2022-08-11T10:22:37.494Z,69.90
2022-08-11T10:28:28.747Z,72.90
2022-08-11T10:33:37.010Z,72.80
2022-08-11T10:38:39.958Z,70.20
2022-08-11T10:44:02.536Z,71.50
2022-08-11T10:49:04.689Z,71.40
2022-08-11T10:54:25.010Z,70.60
2022-08-11T10:59:29.976Z,72.20
2022-08-11T11:04:51.763Z,70.90
2022-08-11T11:09:58.176Z,68.70
2022-08-11T11:15:20.832Z,69.10
2022-08-11T11:20:36.467Z,68.50
2022-08-11T11:26:10.076Z,69.30
2022-08-11T11:31:30.700Z,68.40
2022-08-11T11:36:39.496Z,68.00
2022-08-11T11:41:42.481Z,69.30
2022-08-11T11:46:46.183Z,66.60
2022-08-11T11:51:50.521Z,65.20
2022-08-11T11:56:56.693Z,64.70
2022-08-11T12:01:59.880Z,64.60
2022-08-11T12:07:20.670Z,66.20
2022-08-11T12:12:42.107Z,67.80
2022-08-11T12:17:44.004Z,67.30
2022-08-11T12:23:04.743Z,70.40
2022-08-11T12:28:06.738Z,68.40
2022-08-11T12:33:09.915Z,69.80
2022-08-11T12:38:12.819Z,67.90
2022-08-11T12:43:38.691Z,67.20
2022-08-11T12:49:22.971Z,67.10
2022-08-11T12:54:33.628Z,68.30
2022-08-11T12:59:54.226Z,69.60
2022-08-11T13:04:59.287Z,70.20
2022-08-11T13:10:03.917Z,68.20
2022-08-11T13:15:07.103Z,70.50
2022-08-11T13:20:13.444Z,68.50
2022-08-11T13:25:16.440Z,68.30
2022-08-11T13:30:41.149Z,71.30
2022-08-11T13:35:50.401Z,71.20
2022-08-11T13:40:56.255Z,71.10
2022-08-11T13:46:18.515Z,73.60
2022-08-11T13:51:36.725Z,71.70
2022-08-11T13:56:42.920Z,72.00
2022-08-11T14:02:20.287Z,70.10
2022-08-11T14:07:15.204Z,71.90
2022-08-11T14:12:42.668Z,73.90
2022-08-11T14:17:48.690Z,70.90
2022-08-11T14:22:52.784Z,71.10
2022-08-11T14:28:32.597Z,70.40
2022-08-11T14:33:20.330Z,70.20
2022-08-11T14:38:23.003Z,70.80
2022-08-11T14:44:03.304Z,70.50
2022-08-11T14:49:06.682Z,72.10
2022-08-11T14:54:28.144Z,71.00
2022-08-11T14:59:30.664Z,71.70
2022-08-11T15:04:36.675Z,72.30
2022-08-11T15:10:02.688Z,70.80
2022-08-11T15:15:26.215Z,73.50
2022-08-11T15:20:48.547Z,70.90
2022-08-11T15:26:03.394Z,74.00
2022-08-11T15:31:23.630Z,72.60
2022-08-11T15:36:45.900Z,71.90
2022-08-11T15:42:33.563Z,73.20
2022-08-11T15:47:57.557Z,75.30
2022-08-11T15:53:24.384Z,72.60
2022-08-11T15:59:10.650Z,73.50
2022-08-11T16:04:16.851Z,73.40
2022-08-11T16:09:52.022Z,74.60
2022-08-11T16:15:20.236Z,73.00
2022-08-11T16:20:26.690Z,73.40
2022-08-11T16:27:02.256Z,74.50
2022-08-11T16:30:53.919Z,74.60
2022-08-11T16:36:15.130Z,76.10
2022-08-11T16:41:41.774Z,75.60
2022-08-11T16:47:01.843Z,75.00
2022-08-11T16:52:10.966Z,75.30
2022-08-11T16:57:45.579Z,75.60
2022-08-11T17:03:12.409Z,75.80
2022-08-11T17:08:39.519Z,77.80
2022-08-11T17:14:00.771Z,78.10
2022-08-11T17:19:08.650Z,76.80
2022-08-11T17:24:14.401Z,77.10
2022-08-11T17:29:20.391Z,80.40
2022-08-11T17:34:40.627Z,78.50
2022-08-11T17:39:43.583Z,80.70
2022-08-11T17:45:04.608Z,79.90
2022-08-11T17:50:16.682Z,80.40
2022-08-11T17:55:52.585Z,80.90
2022-08-11T18:00:57.613Z,82.40
2022-08-11T18:06:06.103Z,83.10
2022-08-11T18:12:10.312Z,82.50
2022-08-11T18:17:07.899Z,83.50
2022-08-11T18:22:40.498Z,85.00
2022-08-11T18:28:05.206Z,84.50
2022-08-11T18:39:10.587Z,86.60
2022-08-11T18:44:33.227Z,87.40
2022-08-11T18:50:03.522Z,87.80
2022-08-11T18:55:30.090Z,89.10
2022-08-11T19:00:51.436Z,89.50
2022-08-11T19:06:39.105Z,90.30
2022-08-11T19:11:59.785Z,91.00
2022-08-11T19:17:44.619Z,90.90
2022-08-11T19:23:04.607Z,91.10
2022-08-11T19:28:26.463Z,91.20
2022-08-11T19:34:00.416Z,91.00
2022-08-11T19:39:30.957Z,90.90
2022-08-11T19:44:51.358Z,91.30
2022-08-11T19:50:14.400Z,91.20
2022-08-11T19:55:37.564Z,91.60
2022-08-11T20:01:01.995Z,92.10
2022-08-11T20:06:27.798Z,92.30
2022-08-11T20:11:57.080Z,92.50
2022-08-11T20:17:18.304Z,92.70
2022-08-11T20:22:38.796Z,93.00
2022-08-11T20:28:01.936Z,93.20
2022-08-11T20:33:23.570Z,93.10
2022-08-11T20:38:49.627Z,93.10
2022-08-11T20:44:11.360Z,93.20
2022-08-11T20:49:45.932Z,93.00
2022-08-11T20:55:19.086Z,92.80
2022-08-11T21:00:47.582Z,92.80
2022-08-11T21:06:11.181Z,92.80
2022-08-11T21:11:33.731Z,92.80
2022-08-11T21:16:55.233Z,92.90
2022-08-11T21:22:19.982Z,92.80
2022-08-11T21:27:42.238Z,92.40
2022-08-11T21:33:04.036Z,92.90
2022-08-11T21:38:24.833Z,92.80
2022-08-11T21:43:48.808Z,93.30
2022-08-11T21:49:10.839Z,93.00
2022-08-11T21:54:37.498Z,93.30
2022-08-11T22:00:08.854Z,93.60
2022-08-11T22:05:35.519Z,93.40
2022-08-11T22:10:56.971Z,93.70
2022-08-11T22:16:18.587Z,93.40
2022-08-11T22:22:02.396Z,93.10
2022-08-11T22:27:20.350Z,93.60
2022-08-11T22:32:41.434Z,93.50
2022-08-11T22:38:03.830Z,94.20
2022-08-11T22:43:24.105Z,93.90
2022-08-11T22:48:48.326Z,93.80
2022-08-11T22:54:09.962Z,94.00
2022-08-11T22:59:31.561Z,94.20
2022-08-11T23:04:53.172Z,94.10
2022-08-11T23:10:14.364Z,94.20
2022-08-11T23:15:40.693Z,93.80
2022-08-11T23:21:02.621Z,93.60
2022-08-11T23:26:23.577Z,93.50
2022-08-11T23:31:50.662Z,93.50
2022-08-11T23:37:13.467Z,93.60
2022-08-11T23:42:36.085Z,93.60
2022-08-11T23:47:58.191Z,94.10
2022-08-11T23:53:19.111Z,93.60
2022-08-11T23:58:39.475Z,93.70
